Russell, Illinois
Current Conditions -  °F | °C
As of 5:55 PM on Sunday 23 Nov 2014 (Local Time) from KUGN Reporting Station
Light Rain Light Rain  
Wind Chill: 42°   Ceiling: 200
Heat Index: 46°   Visibility: 2mi
Dew Point: 45°   Wind: 8mph
Humidity: 96%   Direction: 130°SE
Pressure: 29.38"   Gusts: NA
Location:  42.49°N, 87.91°W
Report Text: KUGN 232355Z 13007KT 2SM -RA BR OVC002 08/07 A2938 RMK AO2 SLP951 P0007 60020 T00780072 10111 20072 58034
Loading
Personal Weather Stations






























Interactive Weather Map New forecast layout! Learn more

10-Day Weather Forecast

Advertisements
Track Severe Weather on mobile